createdAt,value
2018-07-20T00:01:22.923Z,24.98
2018-07-20T00:03:50.785Z,25.30
2018-07-20T00:06:17.846Z,25.48
2018-07-20T00:08:44.903Z,23.95
2018-07-20T00:11:11.931Z,25.95
2018-07-20T00:13:38.922Z,25.42
2018-07-20T00:16:05.926Z,25.80
2018-07-20T00:18:32.979Z,25.95
2018-07-20T00:21:00.842Z,24.75
2018-07-20T00:23:27.896Z,26.08
2018-07-20T00:25:54.940Z,25.17
2018-07-20T00:28:22.397Z,25.15
2018-07-20T00:30:49.446Z,26.15
2018-07-20T00:33:16.499Z,27.92
2018-07-20T00:35:43.544Z,27.10
2018-07-20T00:38:10.495Z,26.70
2018-07-20T00:40:37.484Z,25.85
2018-07-20T00:43:04.429Z,29.77
2018-07-20T00:45:31.432Z,26.23
2018-07-20T00:47:58.486Z,27.80
2018-07-20T00:50:25.426Z,27.83
2018-07-20T00:52:52.480Z,29.00
2018-07-20T00:55:19.523Z,27.95
2018-07-20T00:57:46.607Z,27.42
2018-07-20T01:00:13.518Z,27.30
2018-07-20T01:02:40.566Z,26.62
2018-07-20T01:05:07.621Z,25.10
2018-07-20T01:07:34.670Z,26.62
2018-07-20T01:10:01.712Z,25.60
2018-07-20T01:12:28.766Z,26.52
2018-07-20T01:14:55.810Z,24.75
2018-07-20T01:17:22.858Z,25.27
2018-07-20T01:19:49.852Z,25.83
2018-07-20T01:22:16.853Z,27.50
2018-07-20T01:24:44.936Z,25.33
2018-07-20T01:27:11.981Z,27.62
2018-07-20T01:29:40.097Z,26.58
2018-07-20T01:32:07.403Z,27.15
2018-07-20T01:34:34.357Z,25.88
2018-07-20T01:37:01.401Z,26.67
2018-07-20T01:39:28.859Z,25.70
2018-07-20T01:41:55.809Z,23.87
2018-07-20T01:44:22.751Z,24.73
2018-07-20T01:46:50.725Z,22.50
2018-07-20T01:49:17.767Z,22.87
2018-07-20T01:51:47.177Z,24.50
2018-07-20T01:54:15.142Z,24.02
2018-07-20T01:56:42.190Z,24.05
2018-07-20T01:59:09.176Z,23.52
2018-07-20T02:01:36.184Z,23.48
2018-07-20T02:04:03.239Z,23.42
2018-07-20T02:06:30.282Z,25.52
2018-07-20T02:08:57.233Z,24.12
2018-07-20T02:11:24.277Z,24.67
2018-07-20T02:13:51.327Z,24.12
2018-07-20T02:16:18.379Z,26.12
2018-07-20T02:18:45.425Z,25.45
2018-07-20T02:21:12.373Z,25.88
2018-07-20T02:23:39.420Z,24.77
2018-07-20T02:26:06.466Z,25.20
2018-07-20T02:28:33.521Z,24.80
2018-07-20T02:31:00.590Z,24.80
2018-07-20T02:33:27.611Z,25.45
2018-07-20T02:35:54.665Z,24.35
2018-07-20T02:38:21.709Z,25.55
2018-07-20T02:40:48.757Z,25.00
2018-07-20T02:43:15.812Z,25.27
2018-07-20T02:45:42.856Z,23.87
2018-07-20T02:48:09.910Z,23.98
2018-07-20T02:50:36.956Z,25.00
2018-07-20T02:53:04.001Z,23.00
2018-07-20T02:55:31.049Z,24.05
2018-07-20T02:57:58.102Z,23.08
2018-07-20T03:00:25.095Z,23.25
2018-07-20T03:02:52.097Z,23.73
2018-07-20T03:05:19.145Z,23.48
2018-07-20T03:07:46.196Z,23.75
2018-07-20T03:10:13.137Z,23.80
2018-07-20T03:12:40.185Z,22.45
2018-07-20T03:15:07.545Z,21.92
2018-07-20T03:17:34.591Z,24.10
2018-07-20T03:20:01.638Z,24.25
2018-07-20T03:22:28.892Z,25.37
2018-07-20T03:24:55.942Z,23.52
2018-07-20T03:27:22.994Z,24.33
2018-07-20T03:29:50.037Z,21.25
2018-07-20T03:32:17.089Z,21.15
2018-07-20T03:34:44.140Z,24.30
2018-07-20T03:37:11.082Z,20.30
2018-07-20T03:39:38.135Z,22.02
2018-07-20T03:42:06.471Z,20.27
2018-07-20T03:44:33.866Z,20.25
2018-07-20T03:47:00.922Z,21.85
2018-07-20T03:49:27.967Z,19.65
2018-07-20T03:51:55.317Z,19.85
2018-07-20T03:54:22.367Z,20.02
2018-07-20T03:56:49.420Z,19.27
2018-07-20T03:59:17.385Z,17.80
2018-07-20T04:01:44.435Z,18.62
2018-07-20T04:04:11.494Z,18.83
2018-07-20T04:06:38.478Z,17.60
2018-07-20T04:09:05.485Z,18.77
2018-07-20T04:11:32.526Z,19.35
2018-07-20T04:13:59.576Z,19.98
2018-07-20T04:16:26.629Z,19.48
2018-07-20T04:18:53.672Z,18.70
2018-07-20T04:21:20.547Z,18.55
2018-07-20T04:23:47.570Z,19.58
2018-07-20T04:26:14.622Z,17.12
2018-07-20T04:28:41.661Z,17.95
2018-07-20T04:31:08.617Z,15.40
2018-07-20T04:33:35.662Z,17.92
2018-07-20T04:36:02.713Z,17.80
2018-07-20T04:38:29.760Z,22.20
2018-07-20T04:40:56.823Z,18.65
2018-07-20T04:43:23.856Z,18.65
2018-07-20T04:45:50.911Z,17.75
2018-07-20T04:48:17.948Z,17.70
2018-07-20T04:50:44.997Z,16.83
2018-07-20T04:53:12.057Z,17.40
2018-07-20T04:55:39.094Z,18.20
2018-07-20T04:58:06.147Z,17.00
2018-07-20T05:00:34.118Z,16.83
2018-07-20T05:03:01.161Z,17.42
2018-07-20T05:05:28.210Z,17.27
2018-07-20T05:07:56.695Z,16.87
2018-07-20T05:10:23.795Z,16.83
2018-07-20T05:12:50.743Z,18.55
2018-07-20T05:15:18.098Z,16.98
2018-07-20T05:17:45.160Z,17.92
2018-07-20T05:20:12.200Z,18.87
2018-07-20T05:22:39.239Z,18.92
2018-07-20T05:25:06.805Z,20.65
2018-07-20T05:27:33.848Z,16.92
2018-07-20T05:30:00.899Z,20.12
2018-07-20T05:32:27.960Z,17.23
2018-07-20T05:34:54.992Z,16.85
2018-07-20T05:37:22.042Z,16.42
2018-07-20T05:39:49.096Z,16.67
2018-07-20T05:42:16.246Z,17.48
2018-07-20T05:44:43.598Z,16.00
2018-07-20T05:47:10.648Z,15.32
2018-07-20T05:49:37.700Z,15.15
2018-07-20T05:52:04.743Z,15.45
2018-07-20T05:54:32.713Z,17.37
2018-07-20T05:56:59.767Z,15.27
2018-07-20T05:59:26.811Z,17.77
2018-07-20T06:01:53.859Z,16.58
2018-07-20T06:04:20.912Z,14.75
2018-07-20T06:06:47.956Z,14.90
2018-07-20T06:09:15.004Z,13.60
2018-07-20T06:11:42.155Z,13.90
2018-07-20T06:14:09.316Z,13.68
2018-07-20T06:16:36.253Z,13.62
2018-07-20T06:19:12.117Z,12.65
2018-07-20T06:21:40.597Z,14.07
2018-07-20T06:24:07.645Z,12.45
2018-07-20T06:26:34.632Z,13.43
2018-07-20T06:29:01.642Z,12.10
2018-07-20T06:31:28.683Z,15.73
2018-07-20T06:33:56.453Z,13.50
2018-07-20T06:36:23.498Z,14.73
2018-07-20T06:38:50.552Z,11.27
2018-07-20T06:41:17.598Z,10.90
2018-07-20T06:43:44.696Z,12.20
2018-07-20T06:46:11.697Z,11.02
2018-07-20T06:48:38.739Z,16.00
2018-07-20T06:51:06.403Z,12.30
2018-07-20T06:53:33.658Z,14.05
2018-07-20T06:56:00.706Z,18.80
2018-07-20T06:58:28.471Z,18.25
2018-07-20T07:00:55.523Z,11.57
2018-07-20T07:03:22.567Z,11.40
2018-07-20T07:05:50.332Z,12.73
2018-07-20T07:08:17.285Z,10.85
2018-07-20T07:10:44.327Z,18.95
2018-07-20T07:13:11.683Z,31.00
2018-07-20T07:15:38.736Z,17.12
2018-07-20T07:18:05.783Z,16.67
2018-07-20T07:20:33.088Z,18.27
2018-07-20T07:23:00.696Z,12.45
2018-07-20T07:25:27.648Z,18.05
2018-07-20T07:27:54.896Z,13.23
2018-07-20T07:30:21.949Z,11.73
2018-07-20T07:32:49.014Z,10.60
2018-07-20T07:35:16.043Z,10.30
2018-07-20T07:37:43.295Z,10.80
2018-07-20T07:40:10.247Z,10.68
2018-07-20T07:42:37.398Z,14.75
2018-07-20T07:45:04.648Z,12.95
2018-07-20T07:47:31.700Z,28.62
2018-07-20T07:49:58.745Z,22.15
2018-07-20T07:52:25.793Z,13.43
2018-07-20T07:54:52.903Z,13.05
2018-07-20T07:57:20.095Z,16.15
2018-07-20T07:59:47.246Z,15.75
2018-07-20T08:02:14.192Z,12.43
2018-07-20T08:04:41.245Z,9.80
2018-07-20T08:07:10.117Z,10.00
2018-07-20T08:09:37.128Z,8.00
2018-07-20T08:12:04.133Z,8.43
2018-07-20T08:14:31.181Z,8.75
2018-07-20T08:16:58.226Z,8.15
2018-07-20T08:19:25.786Z,10.25
2018-07-20T08:21:52.833Z,10.35
2018-07-20T08:24:19.891Z,8.60
2018-07-20T08:26:46.930Z,8.48
2018-07-20T08:29:13.978Z,10.98
2018-07-20T08:31:41.129Z,8.48
2018-07-20T08:34:08.163Z,9.35
2018-07-20T08:36:35.227Z,11.77
2018-07-20T08:39:02.276Z,11.12
2018-07-20T08:41:29.331Z,8.98
2018-07-20T08:43:56.374Z,8.60
2018-07-20T08:46:23.326Z,9.30
2018-07-20T08:48:50.368Z,8.65
2018-07-20T08:51:17.724Z,7.95
2018-07-20T08:53:44.875Z,7.82
2018-07-20T08:56:12.031Z,10.98
2018-07-20T08:58:39.079Z,12.98
2018-07-20T09:01:06.019Z,8.48
2018-07-20T09:03:33.089Z,8.13
2018-07-20T09:06:00.061Z,8.90
2018-07-20T09:08:27.071Z,10.55
2018-07-20T09:10:54.111Z,12.75
2018-07-20T09:13:22.047Z,11.48
2018-07-20T09:15:49.278Z,8.73
2018-07-20T09:18:16.288Z,10.15
2018-07-20T09:20:43.374Z,10.55
2018-07-20T09:23:10.311Z,8.18
2018-07-20T09:25:37.326Z,9.45
2018-07-20T09:28:04.374Z,8.95
2018-07-20T09:30:31.524Z,7.12
2018-07-20T09:32:58.578Z,8.70
2018-07-20T09:35:25.565Z,7.25
2018-07-20T09:37:52.574Z,8.57
2018-07-20T09:40:19.618Z,8.55
2018-07-20T09:42:46.672Z,8.52
2018-07-20T09:45:13.819Z,10.65
2018-07-20T09:47:40.871Z,8.20
2018-07-20T09:50:07.913Z,10.82
2018-07-20T09:52:35.065Z,6.90
2018-07-20T09:55:02.114Z,7.15
2018-07-20T09:57:29.167Z,8.98
2018-07-20T09:59:56.208Z,7.03
2018-07-20T10:02:23.260Z,10.38
2018-07-20T10:04:50.353Z,9.13
2018-07-20T10:07:17.356Z,7.20
2018-07-20T10:09:44.306Z,7.47
2018-07-20T10:12:11.351Z,7.80
2018-07-20T10:14:38.399Z,8.00
2018-07-20T10:17:05.477Z,11.85
2018-07-20T10:19:32.495Z,8.18
2018-07-20T10:22:02.411Z,7.62
2018-07-20T10:24:29.465Z,7.07
2018-07-20T10:26:56.545Z,8.10
2018-07-20T10:29:23.461Z,8.02
2018-07-20T10:31:50.507Z,7.45
2018-07-20T10:34:17.552Z,7.60
2018-07-20T10:36:45.578Z,9.10
2018-07-20T10:39:13.287Z,8.02
2018-07-20T10:41:40.345Z,9.27
2018-07-20T10:44:07.386Z,7.30
2018-07-20T10:46:34.642Z,9.50
2018-07-20T10:49:02.100Z,7.57
2018-07-20T10:51:29.145Z,10.45
2018-07-20T10:53:56.192Z,9.32
2018-07-20T10:56:23.247Z,13.50
2018-07-20T10:58:50.293Z,9.35
2018-07-20T11:01:17.295Z,10.38
2018-07-20T11:03:44.286Z,8.88
2018-07-20T11:06:11.334Z,8.23
2018-07-20T11:08:38.395Z,9.45
2018-07-20T11:11:05.474Z,9.63
2018-07-20T11:13:32.579Z,8.05
2018-07-20T11:16:00.554Z,7.37
2018-07-20T11:18:27.607Z,7.70
2018-07-20T11:20:54.645Z,6.00
2018-07-20T11:23:21.693Z,7.65
2018-07-20T11:25:48.845Z,6.25
2018-07-20T11:28:15.899Z,7.05
2018-07-20T11:30:42.944Z,6.25
2018-07-20T11:33:09.991Z,6.10
2018-07-20T11:35:37.045Z,5.45
2018-07-20T11:38:04.087Z,5.93
2018-07-20T11:40:31.136Z,5.32
2018-07-20T11:42:58.189Z,5.40
2018-07-20T11:45:25.233Z,6.70
2018-07-20T11:47:52.280Z,5.05
2018-07-20T11:50:19.335Z,5.18
2018-07-20T11:52:46.378Z,5.43
2018-07-20T11:55:13.441Z,5.50
2018-07-20T11:57:40.578Z,5.45
2018-07-20T12:00:07.728Z,5.65
2018-07-20T12:02:34.924Z,6.70
2018-07-20T12:05:02.030Z,6.50
2018-07-20T12:07:29.392Z,11.77
2018-07-20T12:09:56.330Z,5.55
2018-07-20T12:12:23.218Z,5.40
2018-07-20T12:14:50.326Z,5.00
2018-07-20T12:17:17.381Z,5.20
2018-07-20T12:19:44.322Z,7.32
2018-07-20T12:22:11.374Z,5.32
2018-07-20T12:24:39.338Z,5.25
2018-07-20T12:27:06.290Z,5.45
2018-07-20T12:29:33.334Z,5.40
2018-07-20T12:32:00.793Z,4.65
2018-07-20T12:34:27.839Z,5.60
2018-07-20T12:36:54.991Z,5.05
2018-07-20T12:39:22.660Z,5.12
2018-07-20T12:41:49.703Z,5.72
2018-07-20T12:44:16.749Z,5.50
2018-07-20T12:46:44.150Z,5.00
2018-07-20T12:49:11.154Z,6.28
2018-07-20T12:51:38.107Z,5.05
2018-07-20T12:54:05.154Z,6.37
2018-07-20T12:56:32.198Z,4.85
2018-07-20T12:58:59.275Z,6.93
2018-07-20T13:01:26.192Z,5.70
2018-07-20T13:03:53.342Z,5.20
2018-07-20T13:06:20.288Z,5.25
2018-07-20T13:08:47.337Z,5.03
2018-07-20T13:11:14.389Z,4.72
2018-07-20T13:13:41.542Z,5.30
2018-07-20T13:16:08.787Z,4.93
2018-07-20T13:18:35.736Z,5.20
2018-07-20T13:21:02.784Z,11.77
2018-07-20T13:23:30.037Z,4.87
2018-07-20T13:25:57.187Z,4.90
2018-07-20T13:28:24.235Z,4.50
2018-07-20T13:30:51.289Z,4.47
2018-07-20T13:33:18.332Z,4.90
2018-07-20T13:35:45.284Z,4.53
2018-07-20T13:38:12.267Z,4.87
2018-07-20T13:40:39.278Z,5.40
2018-07-20T13:43:06.323Z,5.53
2018-07-20T13:45:33.681Z,4.75
2018-07-20T13:48:00.730Z,8.25
2018-07-20T13:50:27.721Z,4.25
2018-07-20T13:52:54.792Z,4.78
2018-07-20T13:55:21.772Z,5.05
2018-07-20T13:57:48.828Z,5.00
2018-07-20T14:00:15.970Z,4.55
2018-07-20T14:02:43.121Z,4.53
2018-07-20T14:05:10.174Z,4.87
2018-07-20T14:07:37.215Z,4.70
2018-07-20T14:10:04.264Z,5.35
2018-07-20T14:12:31.322Z,4.50
2018-07-20T14:14:58.668Z,5.00
2018-07-20T14:17:25.652Z,4.78
2018-07-20T14:19:53.077Z,4.68
2018-07-20T14:22:20.120Z,6.53
2018-07-20T14:24:47.173Z,12.13
2018-07-20T14:27:15.243Z,9.73
2018-07-20T14:29:42.189Z,5.97
2018-07-20T14:32:09.237Z,12.60
2018-07-20T14:34:36.183Z,7.87
2018-07-20T14:37:03.277Z,3.75
2018-07-20T14:39:30.285Z,4.90
2018-07-20T14:41:57.329Z,6.37
2018-07-20T14:44:24.378Z,4.97
2018-07-20T14:46:52.045Z,3.33
2018-07-20T14:49:19.089Z,4.72
2018-07-20T14:51:46.137Z,4.80
2018-07-20T14:54:14.246Z,5.07
2018-07-20T14:56:41.771Z,4.72
2018-07-20T14:59:08.818Z,3.53
2018-07-20T15:01:35.899Z,2.90
2018-07-20T15:04:02.861Z,3.50
2018-07-20T15:06:29.965Z,3.10
2018-07-20T15:08:57.019Z,3.22
2018-07-20T15:11:30.820Z,3.47
2018-07-20T15:13:57.869Z,4.25
2018-07-20T15:16:24.922Z,3.70
2018-07-20T15:18:51.909Z,4.10
2018-07-20T15:21:21.575Z,3.87
2018-07-20T15:23:48.624Z,4.50
2018-07-20T15:26:15.676Z,5.37
2018-07-20T15:28:43.234Z,4.22
2018-07-20T15:31:10.551Z,6.10
2018-07-20T15:33:37.654Z,4.82
2018-07-20T15:36:04.685Z,5.32
2018-07-20T15:38:32.079Z,5.55
2018-07-20T15:40:59.088Z,5.30
2018-07-20T15:43:26.139Z,10.90
2018-07-20T15:46:05.769Z,7.40
2018-07-20T15:48:20.698Z,4.95
2018-07-20T15:50:47.642Z,4.93
2018-07-20T15:53:41.032Z,6.87
2018-07-20T15:55:41.892Z,7.05
2018-07-20T15:58:08.980Z,5.55
2018-07-20T16:00:35.988Z,5.40
2018-07-20T16:03:04.066Z,6.53
2018-07-20T16:05:31.111Z,5.93
2018-07-20T16:07:58.164Z,9.10
2018-07-20T16:10:26.334Z,5.57
2018-07-20T16:12:53.485Z,5.78
2018-07-20T16:15:20.539Z,5.18
2018-07-20T16:17:47.583Z,7.82
2018-07-20T16:20:14.632Z,5.95
2018-07-20T16:22:41.588Z,7.40
2018-07-20T16:25:08.627Z,5.60
2018-07-20T16:27:35.573Z,6.70
2018-07-20T16:30:02.621Z,7.50
2018-07-20T16:32:29.984Z,7.07
2018-07-20T16:34:57.025Z,6.15
2018-07-20T16:37:24.074Z,6.53
2018-07-20T16:39:51.127Z,5.82
2018-07-20T16:42:18.171Z,5.30
2018-07-20T16:44:45.324Z,5.82
2018-07-20T16:47:12.417Z,6.18
2018-07-20T16:49:41.734Z,6.22
2018-07-20T16:52:08.931Z,7.05
2018-07-20T16:54:36.079Z,7.20
2018-07-20T16:57:03.231Z,6.65
2018-07-20T16:59:30.420Z,8.05
2018-07-20T17:01:57.428Z,6.45
2018-07-20T17:04:24.485Z,6.60
2018-07-20T17:06:51.637Z,6.10
2018-07-20T17:09:18.784Z,6.57
2018-07-20T17:11:45.768Z,6.25
2018-07-20T17:14:12.778Z,6.90
2018-07-20T17:16:39.821Z,6.18
2018-07-20T17:19:06.871Z,6.75
2018-07-20T17:21:33.816Z,6.93
2018-07-20T17:24:00.866Z,6.70
2018-07-20T17:26:27.919Z,6.03
2018-07-20T17:28:54.963Z,5.95
2018-07-20T17:31:22.012Z,7.57
2018-07-20T17:33:49.065Z,6.03
2018-07-20T17:36:16.863Z,6.00
2018-07-20T17:38:43.880Z,6.10
2018-07-20T17:41:10.925Z,5.65
2018-07-20T17:43:37.977Z,6.50
2018-07-20T17:46:05.021Z,6.93
2018-07-20T17:48:32.683Z,5.57
2018-07-20T17:50:59.737Z,7.85
2018-07-20T17:53:26.780Z,6.10
2018-07-20T17:55:54.544Z,5.75
2018-07-20T17:58:21.594Z,6.22
2018-07-20T18:00:48.649Z,5.30
2018-07-20T18:03:15.799Z,5.47
2018-07-20T18:05:43.566Z,6.12
2018-07-20T18:08:10.918Z,6.40
2018-07-20T18:10:37.963Z,8.02
2018-07-20T18:13:04.910Z,7.78
2018-07-20T18:15:31.896Z,6.53
2018-07-20T18:17:58.904Z,5.93
2018-07-20T18:20:25.903Z,5.95
2018-07-20T18:22:53.822Z,5.85
2018-07-20T18:25:20.873Z,5.70
2018-07-20T18:27:47.925Z,5.53
2018-07-20T18:30:14.967Z,5.50
2018-07-20T18:32:42.016Z,5.45
2018-07-20T18:35:09.069Z,5.45
2018-07-20T18:37:36.113Z,5.35
2018-07-20T18:40:03.160Z,5.55
2018-07-20T18:42:30.415Z,6.70
2018-07-20T18:44:57.467Z,5.25
2018-07-20T18:47:24.518Z,5.35
2018-07-20T18:49:51.559Z,5.03
2018-07-20T18:52:18.609Z,5.32
2018-07-20T18:54:45.761Z,5.82
2018-07-20T18:57:12.813Z,5.82
2018-07-20T18:59:39.768Z,5.82
2018-07-20T19:02:06.808Z,6.05
2018-07-20T19:04:33.850Z,5.40
2018-07-20T19:07:00.900Z,5.40
2018-07-20T19:09:27.954Z,13.70
2018-07-20T19:11:54.997Z,5.40
2018-07-20T19:14:22.148Z,5.40
2018-07-20T19:16:49.298Z,5.62
2018-07-20T19:19:16.349Z,6.10
2018-07-20T19:21:43.402Z,7.40
2018-07-20T19:24:10.448Z,8.48
2018-07-20T19:26:38.625Z,6.00
2018-07-20T19:29:05.669Z,6.55
2018-07-20T19:31:32.931Z,6.37
2018-07-20T19:34:01.097Z,5.90
2018-07-20T19:36:28.152Z,5.85
2018-07-20T19:38:55.196Z,5.40
2018-07-20T19:41:23.800Z,5.47
2018-07-20T19:43:50.836Z,5.45
2018-07-20T19:46:17.882Z,6.03
2018-07-20T19:48:44.926Z,5.72
2018-07-20T19:51:12.181Z,6.20
2018-07-20T19:53:39.334Z,5.40
2018-07-20T19:56:06.381Z,7.03
2018-07-20T19:58:33.326Z,8.40
2018-07-20T20:01:00.371Z,5.70
2018-07-20T20:03:27.431Z,6.00
2018-07-20T20:05:54.470Z,6.15
2018-07-20T20:08:21.928Z,6.03
2018-07-20T20:10:48.977Z,6.03
2018-07-20T20:13:15.923Z,7.78
2018-07-20T20:15:43.097Z,5.97
2018-07-20T20:18:10.032Z,5.85
2018-07-20T20:20:37.070Z,5.93
2018-07-20T20:23:05.249Z,6.25
2018-07-20T20:25:32.294Z,5.68
2018-07-20T20:27:59.342Z,8.55
2018-07-20T20:30:26.289Z,6.53
2018-07-20T20:32:53.644Z,5.32
2018-07-20T20:35:20.795Z,5.37
2018-07-20T20:37:48.048Z,7.07
2018-07-20T20:40:16.680Z,5.70
2018-07-20T20:42:43.783Z,5.90
2018-07-20T20:45:10.937Z,6.75
2018-07-20T20:47:37.989Z,6.18
2018-07-20T20:50:05.140Z,8.02
2018-07-20T20:52:32.184Z,6.32
2018-07-20T20:54:59.232Z,6.50
2018-07-20T20:57:26.286Z,6.97
2018-07-20T20:59:53.229Z,6.85
2018-07-20T21:02:20.279Z,7.75
2018-07-20T21:04:47.325Z,7.65
2018-07-20T21:07:14.371Z,8.30
2018-07-20T21:09:41.320Z,8.27
2018-07-20T21:12:09.394Z,7.95
2018-07-20T21:14:36.343Z,7.72
2018-07-20T21:17:03.899Z,8.88
2018-07-20T21:19:31.465Z,7.80
2018-07-20T21:21:58.506Z,7.72
2018-07-20T21:24:25.562Z,8.75
2018-07-20T21:26:53.219Z,10.07
2018-07-20T21:29:20.370Z,9.27
2018-07-20T21:31:47.419Z,8.10
2018-07-20T21:34:14.367Z,8.45
2018-07-20T21:36:41.412Z,8.27
2018-07-20T21:39:08.360Z,8.13
2018-07-20T21:41:35.408Z,7.93
2018-07-20T21:44:02.462Z,8.18
2018-07-20T21:46:29.504Z,7.57
2018-07-20T21:48:56.457Z,7.95
2018-07-20T21:51:23.500Z,7.35
2018-07-20T21:53:53.111Z,8.85
2018-07-20T21:56:20.159Z,8.43
2018-07-20T21:58:47.212Z,11.63
2018-07-20T22:01:14.256Z,7.32
2018-07-20T22:03:41.304Z,7.78
2018-07-20T22:06:08.357Z,7.07
2018-07-20T22:08:35.405Z,7.28
2018-07-20T22:11:02.450Z,6.80
2018-07-20T22:13:29.396Z,7.87
2018-07-20T22:15:56.348Z,7.62
2018-07-20T22:18:23.393Z,7.72
2018-07-20T22:20:50.438Z,7.72
2018-07-20T22:23:17.544Z,6.95
2018-07-20T22:25:44.535Z,7.07
2018-07-20T22:28:11.585Z,7.87
2018-07-20T22:30:38.640Z,7.00
2018-07-20T22:33:25.492Z,7.32
2018-07-20T22:35:53.726Z,7.20
2018-07-20T22:38:20.777Z,7.50
2018-07-20T22:40:47.830Z,7.57
2018-07-20T22:43:14.981Z,7.93
2018-07-20T22:45:42.023Z,7.32
2018-07-20T22:48:09.075Z,7.70
2018-07-20T22:50:36.123Z,10.35
2018-07-20T22:53:03.062Z,10.00
2018-07-20T22:55:30.120Z,7.22
2018-07-20T22:57:57.982Z,8.85
2018-07-20T23:00:25.034Z,8.68
2018-07-20T23:02:52.120Z,7.80
2018-07-20T23:05:19.537Z,6.97
2018-07-20T23:07:46.583Z,6.57
2018-07-20T23:10:13.531Z,6.85
2018-07-20T23:12:41.808Z,6.50
2018-07-20T23:15:08.861Z,6.97
2018-07-20T23:17:35.905Z,7.35
2018-07-20T23:20:02.855Z,7.57
2018-07-20T23:22:29.796Z,8.00
2018-07-20T23:24:56.887Z,6.70
2018-07-20T23:27:23.792Z,8.65
2018-07-20T23:29:50.813Z,6.47
2018-07-20T23:32:17.786Z,7.32
2018-07-20T23:34:44.842Z,7.28
2018-07-20T23:37:11.781Z,7.03
2018-07-20T23:39:38.835Z,8.32
2018-07-20T23:42:05.879Z,7.47
2018-07-20T23:44:32.927Z,7.10
2018-07-20T23:46:59.983Z,8.70
2018-07-20T23:49:26.966Z,7.28
2018-07-20T23:51:55.797Z,7.32
2018-07-20T23:54:22.701Z,9.68
2018-07-20T23:56:49.707Z,7.30
2018-07-20T23:59:16.657Z,8.20
